Time;durP1;ratioP1;P1;durP2;ratioP2;P2;SDS_P1;SDS_P2;PMS_P1;PMS_P2;Temp;Humidity;BMP_temperature;BMP_pressure;BME280_temperature;BME280_humidity;BME280_pressure;Samples;Min_cycle;Max_cycle;Signal;HPM_P1;HPM_P2
2023/03/19 00:01:04;;;;;;;2.73;1.43;;;;;;;11.39;100.00;100969.50;5212101;28;20026;-74
2023/03/19 00:03:35;;;;;;;2.75;1.08;;;;;;;11.34;100.00;100985.53;5212876;28;20018;-72
2023/03/19 00:06:07;;;;;;;2.53;1.37;;;;;;;11.39;100.00;100961.63;5212490;28;20072;-73
2023/03/19 00:08:38;;;;;;;2.70;1.63;;;;;;;11.23;100.00;100959.09;5212552;28;20033;-72
2023/03/19 00:11:12;;;;;;;2.43;1.20;;;;;;;11.34;100.00;100964.53;5212440;28;20018;-73
2023/03/19 00:13:43;;;;;;;1.50;1.02;;;;;;;11.43;100.00;100978.03;5209731;28;20434;-74
2023/03/19 00:16:15;;;;;;;2.87;1.20;;;;;;;11.38;100.00;100979.13;5211803;28;20072;-74
2023/03/19 00:18:46;;;;;;;3.40;1.33;;;;;;;11.31;100.00;100963.88;5212486;28;20029;-74
2023/03/19 00:21:18;;;;;;;3.10;1.40;;;;;;;11.25;100.00;100962.47;5208094;28;20061;-74
2023/03/19 00:23:50;;;;;;;4.17;1.50;;;;;;;11.27;100.00;100989.44;5210088;28;20025;-74
2023/03/19 00:26:22;;;;;;;3.23;1.43;;;;;;;11.23;100.00;100959.09;5199463;28;20362;-73
2023/03/19 00:28:54;;;;;;;1.80;1.30;;;;;;;11.27;100.00;100978.09;5212938;28;20022;-74
2023/03/19 00:31:27;;;;;;;4.20;1.50;;;;;;;11.28;100.00;100982.41;5211976;28;20026;-74
2023/03/19 00:33:59;;;;;;;2.33;1.60;;;;;;;11.38;100.00;100997.50;5209747;28;20491;-73
2023/03/19 00:36:30;;;;;;;4.37;1.63;;;;;;;11.40;100.00;100993.94;5212518;28;20018;-73
2023/03/19 00:39:03;;;;;;;2.67;1.40;;;;;;;11.38;100.00;100994.88;5210904;28;20492;-74
2023/03/19 00:41:34;;;;;;;4.10;1.43;;;;;;;11.16;100.00;100960.41;5212552;28;20121;-74
2023/03/19 00:44:06;;;;;;;2.90;1.90;;;;;;;11.21;100.00;100990.66;5214598;28;20525;-73
2023/03/19 00:46:38;;;;;;;2.40;1.53;;;;;;;11.15;100.00;100979.69;5214967;28;20026;-74
2023/03/19 00:49:09;;;;;;;4.13;1.67;;;;;;;11.30;100.00;100978.75;5216566;28;20018;-74
2023/03/19 00:51:42;;;;;;;4.90;2.23;;;;;;;11.24;100.00;100985.22;5216370;28;20030;-75
2023/03/19 00:54:14;;;;;;;3.30;1.80;;;;;;;11.32;100.00;100994.41;5216137;28;20028;-75
2023/03/19 00:56:45;;;;;;;6.90;2.90;;;;;;;11.21;100.00;100969.69;5216049;28;20490;-75
2023/03/19 00:59:16;;;;;;;4.53;2.50;;;;;;;11.30;100.00;100988.41;5216174;28;20053;-75
2023/03/19 01:01:48;;;;;;;4.33;2.20;;;;;;;11.15;100.00;100979.69;5219131;28;20461;-75
2023/03/19 01:04:19;;;;;;;4.23;1.90;;;;;;;11.28;100.00;100992.88;5199576;28;20081;-74
2023/03/19 01:06:50;;;;;;;4.90;2.03;;;;;;;11.29;100.00;101003.31;5214653;28;20485;-74
2023/03/19 01:09:21;;;;;;;4.00;2.47;;;;;;;11.23;100.00;101003.66;5213620;28;20092;-74
2023/03/19 01:11:53;;;;;;;5.83;2.13;;;;;;;11.10;100.00;100983.44;5210802;28;20065;-74
2023/03/19 01:14:24;;;;;;;4.30;2.13;;;;;;;11.28;100.00;100993.75;5213460;28;20702;-73
2023/03/19 01:16:56;;;;;;;3.20;1.93;;;;;;;11.08;100.00;100984.47;5214365;28;20040;-75
2023/03/19 01:19:28;;;;;;;3.53;1.90;;;;;;;11.19;100.00;100983.81;5214670;28;20362;-74
2023/03/19 01:22:01;;;;;;;6.23;2.13;;;;;;;10.99;100.00;100967.50;5214958;28;20053;-74
2023/03/19 01:24:32;;;;;;;3.90;1.97;;;;;;;11.07;100.00;100969.66;5215869;28;20585;-74
2023/03/19 01:27:04;;;;;;;3.57;1.67;;;;;;;11.25;100.00;101000.03;5213129;28;20077;-74
2023/03/19 01:29:36;;;;;;;4.40;2.00;;;;;;;11.16;100.00;101000.56;5215268;28;20124;-74
2023/03/19 01:32:07;;;;;;;3.77;2.30;;;;;;;11.01;100.00;101003.16;5213518;28;20033;-74
2023/03/19 01:34:39;;;;;;;3.60;2.10;;;;;;;11.17;100.00;100993.56;5213609;28;20513;-74
2023/03/19 01:37:11;;;;;;;3.97;2.13;;;;;;;11.12;100.00;100996.44;5214539;28;20042;-74
2023/03/19 01:39:44;;;;;;;2.87;1.97;;;;;;;11.08;100.00;100989.72;5214784;28;20032;-74
2023/03/19 01:42:16;;;;;;;4.37;1.90;;;;;;;11.08;100.00;100980.03;5214645;28;20033;-73
2023/03/19 01:44:48;;;;;;;4.33;2.10;;;;;;;11.19;100.00;101002.19;5214777;28;20033;-74
2023/03/19 01:47:41;;;;;;;4.40;2.03;;;;;;;11.20;100.00;100988.13;5213306;28;20025;-75
2023/03/19 01:50:43;;;;;;;4.60;2.10;;;;;;;11.23;100.00;100995.78;5200829;28;20465;-74
2023/03/19 01:53:17;;;;;;;3.53;2.07;;;;;;;11.23;100.00;100996.66;5192535;28;20038;-74
2023/03/19 01:55:50;;;;;;;3.72;2.55;;;;;;;11.05;100.00;100980.22;5213358;28;20026;-74
2023/03/19 01:58:21;;;;;;;4.30;2.20;;;;;;;11.11;100.00;100995.63;5213887;28;20030;-73
2023/03/19 02:00:53;;;;;;;4.27;2.10;;;;;;;10.98;100.00;100998.09;5213067;28;20029;-74
2023/03/19 02:03:26;;;;;;;4.40;2.50;;;;;;;11.00;100.00;100990.16;5213932;28;20025;-74
2023/03/19 02:05:58;;;;;;;3.83;2.30;;;;;;;10.97;100.00;100987.72;5214119;28;20026;-73
2023/03/19 02:08:31;;;;;;;4.20;2.33;;;;;;;11.04;100.00;100994.28;5214158;28;20026;-74
2023/03/19 02:11:03;;;;;;;4.10;1.97;;;;;;;11.06;100.00;101008.16;5213582;28;20032;-73
2023/03/19 02:13:35;;;;;;;5.50;2.00;;;;;;;10.96;100.00;100981.63;5212722;28;20062;-73
2023/03/19 02:16:07;;;;;;;4.50;2.20;;;;;;;11.00;100.00;100998.88;5212635;28;20439;-73
2023/03/19 02:18:39;;;;;;;6.20;2.93;;;;;;;10.99;100.00;100988.47;5214169;28;20021;-74
2023/03/19 02:21:14;;;;;;;4.00;2.60;;;;;;;10.84;100.00;100983.19;5213560;28;20036;-75
2023/03/19 02:24:05;;;;;;;4.33;2.90;;;;;;;10.96;100.00;100991.28;5213887;28;20025;-72
2023/03/19 02:26:37;;;;;;;5.57;3.17;;;;;;;10.89;100.00;100986.38;5212273;28;20025;-74
2023/03/19 02:29:10;;;;;;;5.57;2.80;;;;;;;10.97;100.00;101004.28;5213518;28;20485;-73
2023/03/19 02:31:41;;;;;;;4.27;3.07;;;;;;;10.99;100.00;101001.56;5212333;28;20044;-73
2023/03/19 02:34:12;;;;;;;3.67;2.70;;;;;;;10.88;100.00;101003.06;5213230;28;20058;-74
2023/03/19 02:36:50;;;;;;;6.70;2.67;;;;;;;10.91;100.00;100998.56;5213516;28;20129;-74
2023/03/19 02:39:36;;;;;;;3.13;2.40;;;;;;;10.97;100.00;100992.97;5213669;28;20450;-75
2023/03/19 02:42:10;;;;;;;4.13;2.83;;;;;;;10.91;100.00;100995.94;5213577;28;20057;-75
2023/03/19 02:44:41;;;;;;;5.13;2.92;;;;;;;10.92;100.00;101003.72;5212935;28;20589;-75
2023/03/19 02:47:13;;;;;;;7.13;3.43;;;;;;;10.98;100.00;101005.97;5212690;28;20025;-75
2023/03/19 02:49:44;;;;;;;4.20;2.87;;;;;;;10.87;100.00;101003.97;5213189;28;20099;-75
2023/03/19 02:52:16;;;;;;;4.03;2.93;;;;;;;10.95;100.00;101010.53;5212804;28;20508;-75
2023/03/19 02:54:47;;;;;;;4.20;3.53;;;;;;;10.86;100.00;100993.59;5213286;28;20145;-73
2023/03/19 02:57:19;;;;;;;5.10;3.60;;;;;;;10.95;100.00;101019.25;5212974;28;20033;-73
2023/03/19 02:59:50;;;;;;;4.10;2.87;;;;;;;10.87;100.00;101003.97;5213016;28;20183;-73
2023/03/19 03:02:22;;;;;;;6.17;3.43;;;;;;;10.87;100.00;101009.22;5211602;28;20017;-74
2023/03/19 03:04:53;;;;;;;4.70;3.57;;;;;;;10.80;100.00;100997.44;5190720;28;20026;-74
2023/03/19 03:07:25;;;;;;;4.27;3.13;;;;;;;10.84;100.00;101009.41;5212564;28;20029;-74
2023/03/19 03:09:57;;;;;;;6.13;3.50;;;;;;;10.97;100.00;101019.16;5212529;28;20010;-74
2023/03/19 03:12:29;;;;;;;6.10;3.83;;;;;;;10.87;100.00;101011.00;5213036;28;20036;-75
2023/03/19 03:15:00;;;;;;;6.90;3.70;;;;;;;10.88;100.00;101018.78;5212324;28;20030;-74
2023/03/19 03:17:32;;;;;;;6.47;3.33;;;;;;;10.88;100.00;101010.91;5212150;28;20033;-75
2023/03/19 03:20:05;;;;;;;6.87;4.23;;;;;;;10.84;100.00;101005.97;5212507;28;20087;-74
2023/03/19 03:22:38;;;;;;;4.40;3.43;;;;;;;10.89;100.00;101017.84;5212960;28;20116;-75
2023/03/19 03:25:10;;;;;;;3.70;2.97;;;;;;;10.86;100.00;101011.91;5212036;28;20081;-74
2023/03/19 03:27:41;;;;;;;4.30;3.30;;;;;;;10.82;100.00;101006.00;5213181;28;20100;-75
2023/03/19 03:30:14;;;;;;;6.30;3.40;;;;;;;10.88;100.00;101015.31;5211322;28;20053;-75
2023/03/19 03:32:46;;;;;;;5.67;3.37;;;;;;;10.85;100.00;101013.72;5212813;28;20652;-74
2023/03/19 03:35:21;;;;;;;5.07;3.07;;;;;;;10.81;100.00;101000.88;5212313;28;20061;-75
2023/03/19 03:37:52;;;;;;;5.70;3.47;;;;;;;10.85;100.00;101007.63;5212633;28;20041;-76
2023/03/19 03:40:23;;;;;;;4.77;3.60;;;;;;;10.80;100.00;101009.69;5212306;28;20034;-74
2023/03/19 03:42:55;;;;;;;6.07;3.53;;;;;;;10.75;100.00;101002.09;5212150;28;20030;-74
2023/03/19 03:45:26;;;;;;;6.07;4.10;;;;;;;10.87;100.00;101013.63;5210936;28;20026;-75
2023/03/19 03:47:58;;;;;;;4.67;3.20;;;;;;;10.86;100.00;101019.78;5212330;28;20026;-75
2023/03/19 03:50:29;;;;;;;5.83;3.63;;;;;;;10.73;100.00;101011.81;5212033;28;20097;-75
2023/03/19 03:53:01;;;;;;;5.30;3.57;;;;;;;10.83;100.00;101028.69;5212020;28;20025;-75
2023/03/19 03:55:32;;;;;;;5.23;3.40;;;;;;;10.81;100.00;101034.94;5212694;28;20068;-75
2023/03/19 03:58:04;;;;;;;7.37;4.00;;;;;;;10.70;100.00;101027.72;5211454;28;20103;-75
2023/03/19 04:00:35;;;;;;;5.30;3.67;;;;;;;10.79;100.00;101037.63;5210028;28;20041;-75
2023/03/19 04:03:07;;;;;;;6.93;4.40;;;;;;;10.61;100.00;101027.28;5212244;28;20113;-74
2023/03/19 04:05:39;;;;;;;7.47;3.57;;;;;;;10.69;100.00;101036.47;5212436;28;20254;-75
2023/03/19 04:08:11;;;;;;;6.07;4.53;;;;;;;10.67;100.00;101033.09;5211766;28;20030;-74
2023/03/19 04:10:42;;;;;;;5.40;3.60;;;;;;;10.56;100.00;101031.13;5212557;28;20092;-75
2023/03/19 04:13:14;;;;;;;8.97;4.43;;;;;;;10.43;100.00;101026.53;5211592;28;20030;-74
2023/03/19 04:15:45;;;;;;;5.87;3.80;;;;;;;10.60;100.00;101028.22;5200521;28;20022;-74
2023/03/19 04:18:17;;;;;;;7.30;4.33;;;;;;;10.48;100.00;101021.91;5215773;28;20026;-74
2023/03/19 04:20:48;;;;;;;6.13;3.80;;;;;;;10.50;100.00;101017.44;5216102;28;20104;-74
2023/03/19 04:23:19;;;;;;;5.10;3.77;;;;;;;10.58;100.00;101030.09;5215718;28;20040;-75
2023/03/19 04:25:51;;;;;;;4.27;3.87;;;;;;;10.49;100.00;101012.28;5198589;28;20438;-74
2023/03/19 04:28:22;;;;;;;6.83;4.23;;;;;;;10.55;100.00;101035.50;5216029;28;20448;-74
2023/03/19 04:31:05;;;;;;;5.47;3.77;;;;;;;10.41;100.00;101021.41;5196876;28;20104;-75
2023/03/19 04:33:36;;;;;;;7.50;4.50;;;;;;;10.46;100.00;101035.97;5215487;28;20057;-75
2023/03/19 04:36:07;;;;;;;7.57;4.43;;;;;;;10.22;100.00;101018.09;5215830;28;20045;-75
2023/03/19 04:38:39;;;;;;;5.83;4.80;;;;;;;10.21;100.00;101024.28;5216214;28;20040;-75
2023/03/19 04:41:10;;;;;;;7.10;4.13;;;;;;;10.39;100.00;101020.63;5215303;28;20052;-73
2023/03/19 04:43:41;;;;;;;6.33;4.50;;;;;;;10.29;100.00;101033.41;5216432;28;20026;-75
2023/03/19 04:46:13;;;;;;;6.97;4.00;;;;;;;10.27;100.00;101037.88;5214424;28;20026;-75
2023/03/19 04:48:44;;;;;;;6.03;4.30;;;;;;;10.28;100.00;101029.06;5215853;28;20029;-75
2023/03/19 04:51:15;;;;;;;5.67;4.40;;;;;;;10.27;100.00;101037.03;5214929;28;20030;-74
2023/03/19 04:53:47;;;;;;;5.80;4.50;;;;;;;10.28;100.00;101036.09;5215751;28;20053;-72
2023/03/19 04:56:19;;;;;;;5.13;4.53;;;;;;;10.32;100.00;101035.00;5215178;28;20050;-73
2023/03/19 04:58:51;;;;;;;6.90;4.70;;;;;;;10.26;100.00;101038.78;5202045;28;20648;-74
2023/03/19 05:01:22;;;;;;;6.90;4.03;;;;;;;10.13;100.00;101032.53;5196946;28;20125;-75
2023/03/19 05:03:54;;;;;;;6.57;4.47;;;;;;;10.16;100.00;101051.53;5215397;28;20042;-74
2023/03/19 05:06:26;;;;;;;6.20;4.63;;;;;;;10.18;100.00;101054.06;5215310;28;20028;-74
2023/03/19 05:08:57;;;;;;;6.33;4.37;;;;;;;10.02;100.00;101057.53;5196643;28;20026;-74
2023/03/19 05:11:30;;;;;;;6.80;4.90;;;;;;;10.08;100.00;101060.75;5215300;28;20049;-74
2023/03/19 05:14:01;;;;;;;9.10;5.17;;;;;;;10.08;100.00;101058.13;5215117;28;20010;-74
2023/03/19 05:16:34;;;;;;;6.00;5.17;;;;;;;10.10;100.00;101054.50;5197436;28;20033;-74
2023/03/19 05:19:05;;;;;;;6.33;5.43;;;;;;;10.08;100.00;101068.59;5214440;28;20079;-74
2023/03/19 05:21:37;;;;;;;6.03;5.00;;;;;;;9.99;100.00;101057.69;5215606;28;20037;-74
2023/03/19 05:24:08;;;;;;;6.97;5.30;;;;;;;9.89;100.00;101064.34;5214243;28;20029;-73
2023/03/19 05:26:39;;;;;;;6.60;5.30;;;;;;;9.74;100.00;101052.94;5214308;28;20022;-74
2023/03/19 05:29:11;;;;;;;6.43;4.70;;;;;;;9.99;100.00;101062.94;5214470;28;20105;-74
2023/03/19 05:31:42;;;;;;;7.03;5.20;;;;;;;9.78;100.00;101072.75;5196971;28;20092;-75
2023/03/19 05:34:14;;;;;;;7.00;5.33;;;;;;;9.79;100.00;101067.44;5199541;28;20127;-75
2023/03/19 05:36:45;;;;;;;7.50;5.43;;;;;;;9.76;100.00;101082.47;5215263;28;20105;-74
2023/03/19 05:39:16;;;;;;;6.73;5.67;;;;;;;9.58;100.00;101050.28;5214228;28;20026;-74
2023/03/19 05:41:48;;;;;;;8.93;5.40;;;;;;;9.75;100.00;101086.88;5214743;28;20021;-75
2023/03/19 05:44:20;;;;;;;5.33;4.83;;;;;;;9.56;100.00;101048.56;5214292;28;20071;-75
2023/03/19 05:46:52;;;;;;;6.70;5.00;;;;;;;9.31;100.00;101041.19;5213877;28;20029;-74
2023/03/19 05:49:23;;;;;;;9.33;5.50;;;;;;;9.78;100.00;101085.84;5214115;28;20025;-75
2023/03/19 05:51:54;;;;;;;8.77;5.47;;;;;;;9.68;100.00;101098.56;5214346;28;20045;-75
2023/03/19 05:54:27;;;;;;;7.20;4.83;;;;;;;9.45;100.00;101077.06;5214085;28;20049;-75
2023/03/19 05:56:58;;;;;;;6.47;4.93;;;;;;;9.60;100.00;101096.34;5214058;28;20026;-75
2023/03/19 05:59:30;;;;;;;7.37;5.43;;;;;;;9.63;100.00;101085.75;5214584;28;20096;-75
2023/03/19 06:02:01;;;;;;;7.90;5.70;;;;;;;9.63;100.00;101092.72;5213441;28;20405;-75
2023/03/19 06:04:33;;;;;;;9.40;6.50;;;;;;;9.55;100.00;101090.50;5214577;28;20049;-75
2023/03/19 06:07:05;;;;;;;7.87;6.27;;;;;;;9.67;100.00;101094.25;5213426;28;20045;-75
2023/03/19 06:09:36;;;;;;;7.67;5.60;;;;;;;9.20;100.00;101100.06;5213016;28;20049;-75
2023/03/19 06:12:08;;;;;;;9.43;7.20;;;;;;;9.56;100.00;101103.50;5214270;28;20093;-74
2023/03/19 06:14:39;;;;;;;7.00;5.97;;;;;;;9.63;100.00;101111.91;5214092;28;20029;-75
2023/03/19 06:17:11;;;;;;;7.90;6.40;;;;;;;9.62;100.00;101096.25;5212836;28;20045;-75
2023/03/19 06:19:42;;;;;;;8.50;6.73;;;;;;;9.50;100.00;101110.81;5214088;28;20474;-75
2023/03/19 06:22:14;;;;;;;8.60;6.87;;;;;;;9.59;100.00;101105.13;5213543;28;20026;-75
2023/03/19 06:24:45;;;;;;;10.13;7.13;;;;;;;9.73;100.00;101121.84;5212578;28;20025;-75
2023/03/19 06:27:16;;;;;;;8.37;7.50;;;;;;;9.76;100.00;101126.91;5213446;28;20087;-74
2023/03/19 06:29:48;;;;;;;11.27;7.97;;;;;;;9.79;100.00;101132.84;5213204;28;20025;-75
2023/03/19 06:32:19;;;;;;;8.70;6.97;;;;;;;9.82;100.00;101131.84;5213397;28;20466;-75
2023/03/19 06:34:52;;;;;;;9.73;7.40;;;;;;;9.82;100.00;101129.25;5213515;28;20077;-75
2023/03/19 06:37:25;;;;;;;9.50;7.30;;;;;;;9.72;100.00;101123.63;5212775;28;20025;-73
2023/03/19 06:39:57;;;;;;;9.40;8.40;;;;;;;9.66;100.00;101111.72;5210797;28;20022;-74
2023/03/19 06:42:28;;;;;;;10.87;8.70;;;;;;;9.74;100.00;101134.84;5213812;28;20296;-74
2023/03/19 06:45:00;;;;;;;9.73;8.73;;;;;;;9.76;100.00;101132.16;5212592;28;20037;-74
2023/03/19 06:47:31;;;;;;;12.10;8.60;;;;;;;9.55;100.00;101108.81;5212879;28;20026;-74
2023/03/19 06:50:03;;;;;;;8.43;7.40;;;;;;;9.79;100.00;101138.06;5212769;28;20018;-74
2023/03/19 06:52:34;;;;;;;12.20;8.93;;;;;;;9.74;100.00;101144.50;5213050;28;20100;-75
2023/03/19 06:55:07;;;;;;;8.70;7.80;;;;;;;9.77;100.00;101146.94;5212853;28;20397;-75
2023/03/19 06:57:38;;;;;;;9.33;8.40;;;;;;;9.73;100.00;101140.16;5195644;28;20030;-75
2023/03/19 07:00:10;;;;;;;9.03;8.03;;;;;;;9.77;100.00;101141.72;5194212;28;20037;-74
2023/03/19 07:02:42;;;;;;;10.47;8.33;;;;;;;9.80;100.00;101145.00;5212887;28;20353;-74
2023/03/19 07:05:14;;;;;;;8.70;7.80;;;;;;;9.67;100.00;101131.72;5212822;28;20037;-73
2023/03/19 07:07:45;;;;;;;10.17;8.90;;;;;;;9.68;100.00;101122.97;5212969;28;20065;-75
2023/03/19 07:10:18;;;;;;;10.63;8.37;;;;;;;9.78;100.00;101151.25;5212570;28;20560;-75
2023/03/19 07:12:50;;;;;;;9.27;8.37;;;;;;;9.79;100.00;101145.91;5212932;28;20381;-74
2023/03/19 07:15:21;;;;;;;11.50;9.40;;;;;;;9.75;100.00;101139.19;5212092;28;20029;-74
2023/03/19 07:17:52;;;;;;;10.40;9.30;;;;;;;9.89;100.00;101164.63;5213566;28;20728;-74
2023/03/19 07:20:24;;;;;;;9.83;8.83;;;;;;;9.92;100.00;101159.22;5194198;28;20028;-74
2023/03/19 07:22:55;;;;;;;9.73;8.63;;;;;;;10.02;100.00;101175.28;5212947;28;20025;-75
2023/03/19 07:25:26;;;;;;;8.93;8.03;;;;;;;10.07;100.00;101171.59;5192222;28;20152;-73
2023/03/19 07:27:59;;;;;;;13.47;8.77;;;;;;;10.03;100.00;101163.91;5195337;28;20474;-74
2023/03/19 07:30:30;;;;;;;11.63;9.27;;;;;;;10.04;100.00;101168.19;5211508;28;20097;-75
2023/03/19 07:33:03;;;;;;;11.30;8.00;;;;;;;10.19;100.00;101177.94;5212408;28;20109;-75
2023/03/19 07:35:37;;;;;;;11.47;8.67;;;;;;;10.31;100.00;101187.78;5212196;28;20053;-75
2023/03/19 07:38:08;;;;;;;10.85;8.45;;;;;;;10.34;100.00;101179.75;5213091;28;20032;-75
2023/03/19 07:40:40;;;;;;;10.80;8.03;;;;;;;10.38;100.00;101173.44;5212906;28;20026;-75
2023/03/19 07:43:11;;;;;;;10.40;7.17;;;;;;;10.49;100.00;101187.75;5212640;28;20489;-74
2023/03/19 07:45:42;;;;;;;9.67;6.97;;;;;;;10.45;100.00;101178.31;5212434;28;20084;-75
2023/03/19 07:48:14;;;;;;;13.67;8.00;;;;;;;10.57;100.00;101182.94;5212347;28;20076;-75
2023/03/19 07:50:45;;;;;;;11.07;6.73;;;;;;;10.68;100.00;101187.59;5215056;28;20030;-76
2023/03/19 07:53:17;;;;;;;11.50;7.33;;;;;;;10.86;100.00;101190.09;5216721;28;20476;-74
2023/03/19 07:55:48;;;;;;;14.03;7.83;;;;;;;10.95;100.00;101178.25;5199361;28;20026;-74
2023/03/19 07:58:20;;;;;;;9.40;6.80;;;;;;;11.06;100.00;101181.13;5197453;28;20036;-76
2023/03/19 08:00:53;;;;;;;9.23;6.60;;;;;;;11.27;100.00;101183.47;5215704;28;20030;-75
2023/03/19 08:03:24;;;;;;;10.83;7.30;;;;;;;11.37;100.00;101183.78;5216275;28;20022;-76
2023/03/19 08:05:55;;;;;;;18.40;6.73;;;;;;;11.28;100.00;101177.28;5217084;28;20033;-74
2023/03/19 08:08:27;;;;;;;12.50;6.20;;;;;;;11.40;100.00;101193.25;5216013;28;20108;-73
2023/03/19 08:10:59;;;;;;;12.80;6.70;;;;;;;11.34;100.00;101176.94;5216729;28;20509;-76
2023/03/19 08:13:30;;;;;;;11.80;6.00;;;;;;;11.38;100.00;101188.06;5216204;28;20033;-75
2023/03/19 08:16:02;;;;;;;14.50;7.27;;;;;;;11.42;100.00;101204.47;5215760;28;20121;-75
2023/03/19 08:18:34;;;;;;;14.13;7.03;;;;;;;11.37;100.00;101212.63;5216294;28;20029;-73
2023/03/19 08:21:05;;;;;;;13.80;8.30;;;;;;;11.19;100.00;101202.25;5216149;28;20054;-73
2023/03/19 08:23:37;;;;;;;16.43;7.83;;;;;;;11.08;100.00;101197.59;5216692;28;20022;-74
2023/03/19 08:26:08;;;;;;;14.40;7.23;;;;;;;11.21;100.00;101216.13;5216062;28;20026;-75
2023/03/19 08:28:39;;;;;;;18.27;8.07;;;;;;;11.10;100.00;101203.59;5216365;28;20469;-75
2023/03/19 08:31:12;;;;;;;16.13;8.00;;;;;;;11.28;100.00;101221.84;5215185;28;20408;-74
2023/03/19 08:33:43;;;;;;;14.20;7.90;;;;;;;11.27;100.00;101220.16;5213839;28;20069;-74
2023/03/19 08:36:15;;;;;;;15.27;7.60;;;;;;;11.37;100.00;101204.75;5215878;28;20045;-75
2023/03/19 08:38:46;;;;;;;14.30;7.73;;;;;;;11.72;100.00;101222.00;5216195;28;20121;-75
2023/03/19 08:41:18;;;;;;;12.50;8.03;;;;;;;11.68;100.00;101209.97;5215790;28;20029;-75
2023/03/19 08:43:52;;;;;;;15.47;7.93;;;;;;;11.76;100.00;101226.13;5216563;28;20044;-75
2023/03/19 08:46:24;;;;;;;13.68;7.25;;;;;;;11.71;100.00;101215.06;5214433;28;20026;-73
2023/03/19 08:48:55;;;;;;;13.60;6.73;;;;;;;11.78;100.00;101232.13;5216029;28;20022;-76
2023/03/19 08:51:29;;;;;;;15.63;7.30;;;;;;;11.73;100.00;101239.41;5208848;28;20033;-74
2023/03/19 08:54:00;;;;;;;12.85;6.53;;;;;;;11.72;100.00;101233.34;5215968;28;20037;-75
2023/03/19 08:56:32;;;;;;;16.70;7.37;;;;;;;11.67;100.00;101219.66;5215896;28;20113;-74
2023/03/19 08:59:03;;;;;;;15.97;7.90;;;;;;;11.77;100.00;101238.31;5215354;28;20065;-74
2023/03/19 09:01:35;;;;;;;12.57;6.50;;;;;;;11.71;100.00;101236.06;5214709;28;20034;-75
2023/03/19 09:04:06;;;;;;;16.40;5.97;;;;;;;11.70;100.00;101240.44;5215094;28;20026;-74
2023/03/19 09:06:38;;;;;;;13.47;5.27;;;;;;;11.77;100.00;101250.56;5215655;28;20033;-74
2023/03/19 09:09:09;;;;;;;12.97;4.60;;;;;;;11.69;100.00;101246.66;5215044;28;20025;-73
2023/03/19 09:11:40;;;;;;;18.20;5.57;;;;;;;11.67;100.00;101253.75;5214526;28;20037;-73
2023/03/19 09:14:12;;;;;;;15.20;5.30;;;;;;;11.65;100.00;101247.75;5214573;28;20473;-73
2023/03/19 09:16:44;;;;;;;13.73;5.40;;;;;;;11.86;100.00;101263.16;5220904;28;20108;-72
2023/03/19 09:19:16;;;;;;;17.50;5.70;;;;;;;12.23;100.00;101262.81;5208172;28;20091;-72
2023/03/19 09:21:47;;;;;;;17.10;4.80;;;;;;;12.62;100.00;101263.06;5204895;28;20030;-73
2023/03/19 09:24:19;;;;;;;21.90;5.67;;;;;;;12.95;100.00;101255.81;5214074;28;20030;-73
2023/03/19 09:26:50;;;;;;;18.57;4.93;;;;;;;13.14;100.00;101254.63;5202515;28;20037;-73
2023/03/19 09:29:23;;;;;;;18.40;5.20;;;;;;;13.51;100.00;101252.22;5212213;28;20029;-73
2023/03/19 09:31:54;;;;;;;16.90;5.57;;;;;;;13.90;100.00;101267.28;5214520;28;20033;-73
2023/03/19 09:34:26;;;;;;;19.90;5.10;;;;;;;14.19;100.00;101264.44;5213956;28;20145;-73
2023/03/19 09:36:57;;;;;;;14.20;5.13;;;;;;;14.47;100.00;101264.34;5213988;28;20452;-73
2023/03/19 09:39:29;;;;;;;17.90;5.57;;;;;;;15.04;100.00;101271.81;5214793;28;20065;-74
2023/03/19 09:42:15;;;;;;;12.03;4.73;;;;;;;14.97;100.00;101276.72;5214599;28;20032;-74
2023/03/19 09:44:48;;;;;;;17.23;5.47;;;;;;;15.31;100.00;101284.81;5212294;28;20038;-74
2023/03/19 09:47:33;;;;;;;11.03;4.97;;;;;;;15.70;100.00;101283.75;5193741;28;20355;-74
2023/03/19 09:50:27;;;;;;;12.67;4.63;;;;;;;15.97;100.00;101275.53;5201170;28;20014;-73
2023/03/19 09:53:01;;;;;;;11.33;4.10;;;;;;;16.23;100.00;101281.63;5205874;28;20403;-74
2023/03/19 09:55:44;;;;;;;16.38;4.78;;;;;;;16.62;100.00;101278.63;5213976;28;20470;-74
2023/03/19 09:58:18;;;;;;;10.90;4.00;;;;;;;17.10;100.00;101287.25;5211428;28;20029;-73
2023/03/19 10:00:52;;;;;;;10.20;5.38;;;;;;;17.20;100.00;101276.75;5199269;28;20121;-73
2023/03/19 10:03:35;;;;;;;13.67;4.23;;;;;;;17.37;100.00;101276.22;5197578;28;20025;-74
2023/03/19 10:06:15;;;;;;;14.40;3.37;;;;;;;17.48;100.00;101279.78;5207719;28;20284;-74
2023/03/19 10:08:50;;;;;;;10.50;3.60;;;;;;;17.98;100.00;101283.59;5206091;28;20029;-74
2023/03/19 10:11:37;;;;;;;11.83;4.10;;;;;;;18.32;100.00;101279.91;5213074;28;20033;-74
2023/03/19 10:14:33;;;;;;;11.80;3.67;;;;;;;17.88;100.00;101295.00;5205970;28;20076;-73
2023/03/19 10:17:11;;;;;;;13.37;3.60;;;;;;;17.90;100.00;101293.06;5209691;28;20354;-74
2023/03/19 10:19:54;;;;;;;15.53;4.60;;;;;;;18.27;100.00;101290.94;5198313;28;20121;-74
2023/03/19 10:22:38;;;;;;;15.67;4.13;;;;;;;18.51;100.00;101281.81;5208459;28;20022;-74
2023/03/19 10:25:17;;;;;;;11.85;3.47;;;;;;;18.89;100.00;101284.72;5195205;28;20045;-74
2023/03/19 10:28:00;;;;;;;11.63;4.43;;;;;;;19.21;100.00;101275.72;5212620;28;20414;-73
2023/03/19 10:30:32;;;;;;;10.07;4.33;;;;;;;19.45;100.00;101300.16;5208692;28;20494;-73
2023/03/19 10:33:25;;;;;;;10.40;3.37;;;;;;;19.53;100.00;101291.50;5212589;28;20022;-72
2023/03/19 10:36:00;;;;;;;11.03;4.23;;;;;;;19.73;100.00;101292.34;5209598;28;20045;-74
2023/03/19 10:38:39;;;;;;;10.33;3.70;;;;;;;20.29;100.00;101292.50;5206268;28;20018;-74
2023/03/19 10:41:26;;;;;;;13.13;4.90;;;;;;;20.26;100.00;101306.09;5208817;28;20493;-75
2023/03/19 10:44:01;;;;;;;13.27;5.00;;;;;;;20.29;85.29;101303.16;5211830;28;20037;-73
2023/03/19 10:46:37;;;;;;;8.03;3.70;;;;;;;20.18;85.41;101311.28;5209809;28;20037;-75
2023/03/19 10:49:13;;;;;;;11.73;3.90;;;;;;;20.09;84.49;101305.00;5211327;28;20025;-75
2023/03/19 10:51:45;;;;;;;12.47;3.60;;;;;;;19.66;86.30;101302.69;5212919;28;20056;-74
2023/03/19 10:54:27;;;;;;;9.27;3.40;;;;;;;19.04;85.55;101302.91;5212943;28;20033;-74
2023/03/19 10:57:00;;;;;;;12.40;4.20;;;;;;;19.20;83.18;101313.03;5200976;28;20060;-75
2023/03/19 10:59:37;;;;;;;14.20;3.80;;;;;;;19.03;83.55;101310.03;5205764;28;20097;-74
2023/03/19 11:02:18;;;;;;;8.27;3.33;;;;;;;19.05;82.50;101304.56;5194953;28;20026;-74
2023/03/19 11:05:22;;;;;;;12.63;3.53;;;;;;;18.87;80.61;101310.53;5195969;28;20036;-73
2023/03/19 11:08:00;;;;;;;9.70;2.77;;;;;;;18.73;83.30;101307.28;5206867;28;20018;-73
2023/03/19 11:10:34;;;;;;;11.40;3.70;;;;;;;18.28;84.70;101308.50;5213054;28;20049;-74
2023/03/19 11:13:22;;;;;;;12.95;3.58;;;;;;;18.12;84.98;101315.06;5212843;28;20405;-73
2023/03/19 11:15:58;;;;;;;13.37;4.20;;;;;;;18.48;83.51;101314.72;5211275;28;20041;-74
2023/03/19 11:18:35;;;;;;;10.73;3.83;;;;;;;18.42;84.40;101309.13;5213509;28;20034;-73
2023/03/19 11:21:28;;;;;;;10.13;3.30;;;;;;;18.19;86.64;101319.88;5213208;28;20061;-73
2023/03/19 11:24:02;;;;;;;8.87;4.80;;;;;;;17.63;85.95;101317.38;5212320;28;20028;-74
2023/03/19 11:26:34;;;;;;;11.30;4.72;;;;;;;18.08;84.25;101311.00;5213305;28;20594;-73
2023/03/19 11:29:06;;;;;;;12.13;5.40;;;;;;;17.52;88.47;101323.56;5198690;28;20021;-73
2023/03/19 11:32:02;;;;;;;10.53;5.00;;;;;;;17.35;90.96;101322.31;5195680;28;20473;-73
2023/03/19 11:34:47;;;;;;;8.80;4.83;;;;;;;17.21;90.87;101332.19;5212242;28;20046;-73
2023/03/19 11:37:30;;;;;;;9.40;5.63;;;;;;;17.30;90.27;101335.91;5212620;28;20088;-72
2023/03/19 11:40:20;;;;;;;10.00;5.87;;;;;;;17.06;90.12;101328.94;5210570;28;20783;-72
2023/03/19 11:43:10;;;;;;;13.27;6.30;;;;;;;17.33;89.17;101334.84;5191785;28;20116;-72
2023/03/19 11:46:06;;;;;;;15.80;7.50;;;;;;;17.37;89.67;101342.38;5205377;28;20034;-72